sensor_id;sensor_type;location;lat;lon;timestamp;P1;durP1;ratioP1;P2;durP2;ratioP2
5493;SDS011;2769;49.864;8.656;2023-02-17T00:00:54;13.93;;;9.33;;
5493;SDS011;2769;49.864;8.656;2023-02-17T00:03:22;18.30;;;9.60;;
5493;SDS011;2769;49.864;8.656;2023-02-17T00:05:50;12.40;;;8.90;;
5493;SDS011;2769;49.864;8.656;2023-02-17T00:08:18;15.23;;;8.80;;
5493;SDS011;2769;49.864;8.656;2023-02-17T00:10:53;18.03;;;10.63;;
5493;SDS011;2769;49.864;8.656;2023-02-17T00:13:23;12.43;;;9.10;;
5493;SDS011;2769;49.864;8.656;2023-02-17T00:15:51;11.83;;;9.60;;
5493;SDS011;2769;49.864;8.656;2023-02-17T00:18:19;12.93;;;8.73;;
5493;SDS011;2769;49.864;8.656;2023-02-17T00:20:48;12.03;;;8.40;;
5493;SDS011;2769;49.864;8.656;2023-02-17T00:23:16;11.83;;;9.07;;
5493;SDS011;2769;49.864;8.656;2023-02-17T00:25:44;10.87;;;8.40;;
5493;SDS011;2769;49.864;8.656;2023-02-17T00:28:12;14.83;;;8.63;;
5493;SDS011;2769;49.864;8.656;2023-02-17T00:30:41;11.53;;;9.03;;
5493;SDS011;2769;49.864;8.656;2023-02-17T00:33:09;10.97;;;8.57;;
5493;SDS011;2769;49.864;8.656;2023-02-17T00:35:40;12.57;;;8.70;;
5493;SDS011;2769;49.864;8.656;2023-02-17T00:38:08;14.73;;;9.47;;
5493;SDS011;2769;49.864;8.656;2023-02-17T00:40:36;15.40;;;9.30;;
5493;SDS011;2769;49.864;8.656;2023-02-17T00:43:05;13.00;;;8.53;;
5493;SDS011;2769;49.864;8.656;2023-02-17T00:45:33;14.97;;;9.40;;
5493;SDS011;2769;49.864;8.656;2023-02-17T00:48:02;12.20;;;8.80;;
5493;SDS011;2769;49.864;8.656;2023-02-17T00:50:30;21.57;;;9.10;;
5493;SDS011;2769;49.864;8.656;2023-02-17T00:52:58;14.00;;;8.73;;
5493;SDS011;2769;49.864;8.656;2023-02-17T00:55:26;12.33;;;8.80;;
5493;SDS011;2769;49.864;8.656;2023-02-17T00:57:54;15.50;;;9.33;;
5493;SDS011;2769;49.864;8.656;2023-02-17T01:00:22;12.67;;;8.50;;
5493;SDS011;2769;49.864;8.656;2023-02-17T01:02:51;12.70;;;8.80;;
5493;SDS011;2769;49.864;8.656;2023-02-17T01:05:20;13.33;;;8.77;;
5493;SDS011;2769;49.864;8.656;2023-02-17T01:07:48;15.73;;;10.17;;
5493;SDS011;2769;49.864;8.656;2023-02-17T01:10:16;12.20;;;8.70;;
5493;SDS011;2769;49.864;8.656;2023-02-17T01:12:45;10.57;;;8.63;;
5493;SDS011;2769;49.864;8.656;2023-02-17T01:15:13;12.30;;;9.30;;
5493;SDS011;2769;49.864;8.656;2023-02-17T01:17:41;13.47;;;8.83;;
5493;SDS011;2769;49.864;8.656;2023-02-17T01:20:09;15.43;;;8.83;;
5493;SDS011;2769;49.864;8.656;2023-02-17T01:22:38;16.03;;;9.70;;
5493;SDS011;2769;49.864;8.656;2023-02-17T01:25:06;15.70;;;9.60;;
5493;SDS011;2769;49.864;8.656;2023-02-17T01:27:35;13.03;;;8.93;;
5493;SDS011;2769;49.864;8.656;2023-02-17T01:30:03;13.43;;;9.70;;
5493;SDS011;2769;49.864;8.656;2023-02-17T01:32:31;14.53;;;9.40;;
5493;SDS011;2769;49.864;8.656;2023-02-17T01:34:59;19.47;;;10.10;;
5493;SDS011;2769;49.864;8.656;2023-02-17T01:37:27;13.93;;;9.63;;
5493;SDS011;2769;49.864;8.656;2023-02-17T01:39:56;11.07;;;8.57;;
5493;SDS011;2769;49.864;8.656;2023-02-17T01:42:24;13.03;;;9.10;;
5493;SDS011;2769;49.864;8.656;2023-02-17T01:47:59;13.00;;;9.33;;
5493;SDS011;2769;49.864;8.656;2023-02-17T01:50:31;11.43;;;8.67;;
5493;SDS011;2769;49.864;8.656;2023-02-17T01:53:01;12.20;;;9.30;;
5493;SDS011;2769;49.864;8.656;2023-02-17T01:55:31;13.90;;;8.83;;
5493;SDS011;2769;49.864;8.656;2023-02-17T01:58:03;12.47;;;9.20;;
5493;SDS011;2769;49.864;8.656;2023-02-17T02:00:33;12.57;;;9.00;;
5493;SDS011;2769;49.864;8.656;2023-02-17T02:03:03;15.97;;;9.20;;
5493;SDS011;2769;49.864;8.656;2023-02-17T02:05:33;15.60;;;9.43;;
5493;SDS011;2769;49.864;8.656;2023-02-17T02:08:03;15.93;;;9.70;;
5493;SDS011;2769;49.864;8.656;2023-02-17T02:10:33;13.70;;;8.77;;
5493;SDS011;2769;49.864;8.656;2023-02-17T02:13:04;12.63;;;8.57;;
5493;SDS011;2769;49.864;8.656;2023-02-17T02:15:33;16.20;;;9.23;;
5493;SDS011;2769;49.864;8.656;2023-02-17T02:24:05;14.73;;;8.20;;
5493;SDS011;2769;49.864;8.656;2023-02-17T02:26:54;15.00;;;9.03;;
5493;SDS011;2769;49.864;8.656;2023-02-17T02:29:55;12.77;;;9.00;;
5493;SDS011;2769;49.864;8.656;2023-02-17T02:32:57;14.30;;;9.70;;
5493;SDS011;2769;49.864;8.656;2023-02-17T02:35:28;12.60;;;9.07;;
5493;SDS011;2769;49.864;8.656;2023-02-17T02:38:03;12.47;;;7.87;;
5493;SDS011;2769;49.864;8.656;2023-02-17T02:40:34;12.97;;;8.20;;
5493;SDS011;2769;49.864;8.656;2023-02-17T02:43:05;10.83;;;8.00;;
5493;SDS011;2769;49.864;8.656;2023-02-17T02:45:36;21.40;;;9.77;;
5493;SDS011;2769;49.864;8.656;2023-02-17T02:48:05;13.00;;;8.87;;
5493;SDS011;2769;49.864;8.656;2023-02-17T02:50:38;18.20;;;8.87;;
5493;SDS011;2769;49.864;8.656;2023-02-17T02:53:21;12.53;;;8.00;;
5493;SDS011;2769;49.864;8.656;2023-02-17T02:55:59;14.80;;;8.90;;
5493;SDS011;2769;49.864;8.656;2023-02-17T02:58:35;11.10;;;7.80;;
5493;SDS011;2769;49.864;8.656;2023-02-17T03:01:08;17.40;;;8.20;;
5493;SDS011;2769;49.864;8.656;2023-02-17T03:03:42;14.93;;;8.83;;
5493;SDS011;2769;49.864;8.656;2023-02-17T03:06:15;12.50;;;8.50;;
5493;SDS011;2769;49.864;8.656;2023-02-17T03:08:46;18.20;;;8.57;;
5493;SDS011;2769;49.864;8.656;2023-02-17T03:11:16;12.30;;;8.03;;
5493;SDS011;2769;49.864;8.656;2023-02-17T03:13:59;11.70;;;7.77;;
5493;SDS011;2769;49.864;8.656;2023-02-17T03:16:28;16.80;;;9.00;;
5493;SDS011;2769;49.864;8.656;2023-02-17T03:18:58;10.80;;;7.63;;
5493;SDS011;2769;49.864;8.656;2023-02-17T03:21:28;15.20;;;9.20;;
5493;SDS011;2769;49.864;8.656;2023-02-17T03:24:00;11.37;;;7.73;;
5493;SDS011;2769;49.864;8.656;2023-02-17T03:26:29;14.30;;;7.73;;
5493;SDS011;2769;49.864;8.656;2023-02-17T03:28:57;17.90;;;8.53;;
5493;SDS011;2769;49.864;8.656;2023-02-17T03:31:25;12.40;;;8.17;;
5493;SDS011;2769;49.864;8.656;2023-02-17T03:33:57;12.10;;;8.43;;
5493;SDS011;2769;49.864;8.656;2023-02-17T03:36:25;10.70;;;7.47;;
5493;SDS011;2769;49.864;8.656;2023-02-17T03:38:55;8.37;;;7.07;;
5493;SDS011;2769;49.864;8.656;2023-02-17T03:41:23;11.80;;;7.53;;
5493;SDS011;2769;49.864;8.656;2023-02-17T03:43:51;18.67;;;8.13;;
5493;SDS011;2769;49.864;8.656;2023-02-17T03:46:19;12.00;;;7.87;;
5493;SDS011;2769;49.864;8.656;2023-02-17T03:48:47;12.40;;;8.67;;
5493;SDS011;2769;49.864;8.656;2023-02-17T03:51:17;10.57;;;7.93;;
5493;SDS011;2769;49.864;8.656;2023-02-17T03:53:46;12.20;;;7.80;;
5493;SDS011;2769;49.864;8.656;2023-02-17T03:56:14;10.43;;;7.30;;
5493;SDS011;2769;49.864;8.656;2023-02-17T03:58:43;14.37;;;7.60;;
5493;SDS011;2769;49.864;8.656;2023-02-17T04:01:11;11.83;;;7.10;;
5493;SDS011;2769;49.864;8.656;2023-02-17T04:03:39;11.33;;;7.00;;
5493;SDS011;2769;49.864;8.656;2023-02-17T04:06:08;10.20;;;7.67;;
5493;SDS011;2769;49.864;8.656;2023-02-17T04:08:38;8.97;;;7.27;;
5493;SDS011;2769;49.864;8.656;2023-02-17T04:11:06;12.80;;;7.40;;
5493;SDS011;2769;49.864;8.656;2023-02-17T04:13:36;10.57;;;7.63;;
5493;SDS011;2769;49.864;8.656;2023-02-17T04:16:05;16.40;;;7.40;;
5493;SDS011;2769;49.864;8.656;2023-02-17T04:18:34;10.30;;;7.40;;
5493;SDS011;2769;49.864;8.656;2023-02-17T04:21:02;10.70;;;7.10;;
5493;SDS011;2769;49.864;8.656;2023-02-17T04:23:30;11.20;;;7.50;;
5493;SDS011;2769;49.864;8.656;2023-02-17T04:25:59;7.47;;;5.80;;
5493;SDS011;2769;49.864;8.656;2023-02-17T04:28:30;11.37;;;6.70;;
5493;SDS011;2769;49.864;8.656;2023-02-17T04:30:58;9.00;;;6.50;;
5493;SDS011;2769;49.864;8.656;2023-02-17T04:33:26;8.47;;;6.37;;
5493;SDS011;2769;49.864;8.656;2023-02-17T04:35:55;6.83;;;6.13;;
5493;SDS011;2769;49.864;8.656;2023-02-17T04:38:25;8.37;;;5.30;;
5493;SDS011;2769;49.864;8.656;2023-02-17T04:40:53;6.87;;;6.17;;
5493;SDS011;2769;49.864;8.656;2023-02-17T04:43:23;7.60;;;6.20;;
5493;SDS011;2769;49.864;8.656;2023-02-17T04:45:52;8.93;;;6.07;;
5493;SDS011;2769;49.864;8.656;2023-02-17T04:48:20;12.50;;;6.40;;
5493;SDS011;2769;49.864;8.656;2023-02-17T04:50:48;8.93;;;5.87;;
5493;SDS011;2769;49.864;8.656;2023-02-17T04:53:16;7.80;;;5.40;;
5493;SDS011;2769;49.864;8.656;2023-02-17T04:55:47;6.93;;;6.10;;
5493;SDS011;2769;49.864;8.656;2023-02-17T04:58:16;10.20;;;6.20;;
5493;SDS011;2769;49.864;8.656;2023-02-17T05:00:46;9.83;;;5.80;;
5493;SDS011;2769;49.864;8.656;2023-02-17T05:03:16;8.20;;;6.00;;
5493;SDS011;2769;49.864;8.656;2023-02-17T05:05:45;8.97;;;5.97;;
5493;SDS011;2769;49.864;8.656;2023-02-17T05:08:13;7.53;;;5.67;;
5493;SDS011;2769;49.864;8.656;2023-02-17T05:10:41;6.03;;;5.37;;
5493;SDS011;2769;49.864;8.656;2023-02-17T05:13:09;12.93;;;6.23;;
5493;SDS011;2769;49.864;8.656;2023-02-17T05:15:36;7.87;;;5.90;;
5493;SDS011;2769;49.864;8.656;2023-02-17T05:18:06;6.33;;;5.63;;
5493;SDS011;2769;49.864;8.656;2023-02-17T05:20:34;5.63;;;5.00;;
5493;SDS011;2769;49.864;8.656;2023-02-17T05:23:01;7.00;;;5.70;;
5493;SDS011;2769;49.864;8.656;2023-02-17T05:25:29;6.80;;;5.77;;
5493;SDS011;2769;49.864;8.656;2023-02-17T05:27:58;6.70;;;6.00;;
5493;SDS011;2769;49.864;8.656;2023-02-17T05:30:25;8.33;;;5.30;;
5493;SDS011;2769;49.864;8.656;2023-02-17T05:32:53;6.93;;;5.53;;
5493;SDS011;2769;49.864;8.656;2023-02-17T05:35:23;5.27;;;4.77;;
5493;SDS011;2769;49.864;8.656;2023-02-17T05:37:51;5.50;;;5.00;;
5493;SDS011;2769;49.864;8.656;2023-02-17T05:40:19;6.50;;;4.90;;
5493;SDS011;2769;49.864;8.656;2023-02-17T05:42:47;5.77;;;5.27;;
5493;SDS011;2769;49.864;8.656;2023-02-17T05:45:15;5.67;;;5.17;;
5493;SDS011;2769;49.864;8.656;2023-02-17T05:47:43;4.63;;;4.23;;
5493;SDS011;2769;49.864;8.656;2023-02-17T05:50:11;6.53;;;4.97;;
5493;SDS011;2769;49.864;8.656;2023-02-17T05:52:40;6.80;;;4.77;;
5493;SDS011;2769;49.864;8.656;2023-02-17T05:55:08;6.90;;;5.40;;
5493;SDS011;2769;49.864;8.656;2023-02-17T05:57:36;8.63;;;5.47;;
5493;SDS011;2769;49.864;8.656;2023-02-17T06:00:04;9.13;;;5.60;;
5493;SDS011;2769;49.864;8.656;2023-02-17T06:02:39;5.93;;;5.10;;
5493;SDS011;2769;49.864;8.656;2023-02-17T06:05:08;6.57;;;4.50;;
5493;SDS011;2769;49.864;8.656;2023-02-17T06:07:36;5.60;;;5.10;;
5493;SDS011;2769;49.864;8.656;2023-02-17T06:10:06;6.87;;;4.90;;
5493;SDS011;2769;49.864;8.656;2023-02-17T06:12:35;5.67;;;5.17;;
5493;SDS011;2769;49.864;8.656;2023-02-17T06:15:03;6.83;;;4.80;;
5493;SDS011;2769;49.864;8.656;2023-02-17T06:17:31;6.23;;;5.20;;
5493;SDS011;2769;49.864;8.656;2023-02-17T06:19:59;6.47;;;5.00;;
5493;SDS011;2769;49.864;8.656;2023-02-17T06:22:26;5.80;;;5.20;;
5493;SDS011;2769;49.864;8.656;2023-02-17T06:24:55;5.60;;;5.10;;
5493;SDS011;2769;49.864;8.656;2023-02-17T06:27:24;5.40;;;4.20;;
5493;SDS011;2769;49.864;8.656;2023-02-17T06:29:52;6.97;;;4.70;;
5493;SDS011;2769;49.864;8.656;2023-02-17T06:32:21;6.57;;;4.40;;
5493;SDS011;2769;49.864;8.656;2023-02-17T06:34:49;6.13;;;5.30;;
5493;SDS011;2769;49.864;8.656;2023-02-17T06:37:17;5.13;;;4.67;;
5493;SDS011;2769;49.864;8.656;2023-02-17T06:39:45;4.77;;;4.37;;
5493;SDS011;2769;49.864;8.656;2023-02-17T06:42:13;6.00;;;4.57;;
5493;SDS011;2769;49.864;8.656;2023-02-17T06:44:42;4.37;;;3.97;;
5493;SDS011;2769;49.864;8.656;2023-02-17T06:47:10;5.30;;;4.80;;
5493;SDS011;2769;49.864;8.656;2023-02-17T06:49:38;5.60;;;5.10;;
5493;SDS011;2769;49.864;8.656;2023-02-17T06:52:07;5.40;;;4.90;;
5493;SDS011;2769;49.864;8.656;2023-02-17T06:54:35;7.73;;;5.00;;
5493;SDS011;2769;49.864;8.656;2023-02-17T06:57:03;4.23;;;3.93;;
5493;SDS011;2769;49.864;8.656;2023-02-17T06:59:31;4.63;;;4.33;;
5493;SDS011;2769;49.864;8.656;2023-02-17T07:02:00;5.23;;;4.73;;
5493;SDS011;2769;49.864;8.656;2023-02-17T07:04:29;6.10;;;5.10;;
5493;SDS011;2769;49.864;8.656;2023-02-17T07:06:57;6.93;;;5.77;;
5493;SDS011;2769;49.864;8.656;2023-02-17T07:09:24;6.20;;;4.93;;
5493;SDS011;2769;49.864;8.656;2023-02-17T07:11:52;5.27;;;4.87;;
5493;SDS011;2769;49.864;8.656;2023-02-17T07:14:23;6.07;;;5.43;;
5493;SDS011;2769;49.864;8.656;2023-02-17T07:16:52;5.40;;;4.90;;
5493;SDS011;2769;49.864;8.656;2023-02-17T07:19:21;7.97;;;5.20;;
5493;SDS011;2769;49.864;8.656;2023-02-17T07:21:49;5.60;;;4.80;;
5493;SDS011;2769;49.864;8.656;2023-02-17T07:24:17;5.53;;;5.03;;
5493;SDS011;2769;49.864;8.656;2023-02-17T07:26:45;7.00;;;5.90;;
5493;SDS011;2769;49.864;8.656;2023-02-17T07:29:13;6.07;;;4.83;;
5493;SDS011;2769;49.864;8.656;2023-02-17T07:31:41;5.40;;;4.90;;
5493;SDS011;2769;49.864;8.656;2023-02-17T07:34:09;7.97;;;4.80;;
5493;SDS011;2769;49.864;8.656;2023-02-17T07:36:38;8.50;;;5.57;;
5493;SDS011;2769;49.864;8.656;2023-02-17T07:39:06;6.07;;;5.47;;
5493;SDS011;2769;49.864;8.656;2023-02-17T07:41:34;5.83;;;5.23;;
5493;SDS011;2769;49.864;8.656;2023-02-17T07:44:07;8.87;;;5.10;;
5493;SDS011;2769;49.864;8.656;2023-02-17T07:46:35;10.70;;;5.37;;
5493;SDS011;2769;49.864;8.656;2023-02-17T07:49:05;4.60;;;4.30;;
5493;SDS011;2769;49.864;8.656;2023-02-17T07:51:33;5.63;;;4.87;;
5493;SDS011;2769;49.864;8.656;2023-02-17T07:54:02;6.40;;;5.10;;
5493;SDS011;2769;49.864;8.656;2023-02-17T07:56:30;6.40;;;5.53;;
5493;SDS011;2769;49.864;8.656;2023-02-17T07:58:59;5.43;;;4.93;;
5493;SDS011;2769;49.864;8.656;2023-02-17T08:01:27;5.70;;;5.00;;
5493;SDS011;2769;49.864;8.656;2023-02-17T08:03:55;5.83;;;5.00;;
5493;SDS011;2769;49.864;8.656;2023-02-17T08:06:24;8.07;;;5.40;;
5493;SDS011;2769;49.864;8.656;2023-02-17T08:08:52;5.47;;;4.97;;
5493;SDS011;2769;49.864;8.656;2023-02-17T08:11:40;5.87;;;5.27;;
5493;SDS011;2769;49.864;8.656;2023-02-17T08:14:26;6.70;;;5.50;;
5493;SDS011;2769;49.864;8.656;2023-02-17T08:16:55;7.43;;;5.27;;
5493;SDS011;2769;49.864;8.656;2023-02-17T08:19:24;6.40;;;4.70;;
5493;SDS011;2769;49.864;8.656;2023-02-17T08:22:04;5.93;;;4.90;;
5493;SDS011;2769;49.864;8.656;2023-02-17T08:24:32;6.87;;;4.60;;
5493;SDS011;2769;49.864;8.656;2023-02-17T08:27:01;5.43;;;4.90;;
5493;SDS011;2769;49.864;8.656;2023-02-17T08:29:29;5.17;;;4.67;;
5493;SDS011;2769;49.864;8.656;2023-02-17T08:31:57;6.37;;;4.70;;
5493;SDS011;2769;49.864;8.656;2023-02-17T08:34:25;4.37;;;4.07;;
5493;SDS011;2769;49.864;8.656;2023-02-17T08:36:58;5.20;;;4.47;;
5493;SDS011;2769;49.864;8.656;2023-02-17T08:39:27;4.03;;;3.73;;
5493;SDS011;2769;49.864;8.656;2023-02-17T08:41:55;4.63;;;4.23;;
5493;SDS011;2769;49.864;8.656;2023-02-17T08:44:25;6.43;;;4.70;;
5493;SDS011;2769;49.864;8.656;2023-02-17T08:46:53;7.17;;;4.20;;
5493;SDS011;2769;49.864;8.656;2023-02-17T08:49:21;5.30;;;4.60;;
5493;SDS011;2769;49.864;8.656;2023-02-17T08:51:51;4.77;;;4.37;;
5493;SDS011;2769;49.864;8.656;2023-02-17T08:54:19;5.60;;;4.70;;
5493;SDS011;2769;49.864;8.656;2023-02-17T08:56:47;5.10;;;4.70;;
5493;SDS011;2769;49.864;8.656;2023-02-17T08:59:15;5.47;;;4.90;;
5493;SDS011;2769;49.864;8.656;2023-02-17T09:01:44;14.80;;;5.23;;
5493;SDS011;2769;49.864;8.656;2023-02-17T09:04:13;7.50;;;4.77;;
5493;SDS011;2769;49.864;8.656;2023-02-17T09:06:45;5.40;;;4.63;;
5493;SDS011;2769;49.864;8.656;2023-02-17T09:09:15;5.77;;;4.70;;
5493;SDS011;2769;49.864;8.656;2023-02-17T09:11:43;6.23;;;5.63;;
5493;SDS011;2769;49.864;8.656;2023-02-17T09:14:11;6.10;;;5.50;;
5493;SDS011;2769;49.864;8.656;2023-02-17T09:16:39;5.93;;;5.40;;
5493;SDS011;2769;49.864;8.656;2023-02-17T09:19:08;7.17;;;5.53;;
5493;SDS011;2769;49.864;8.656;2023-02-17T09:21:36;10.20;;;5.33;;
5493;SDS011;2769;49.864;8.656;2023-02-17T09:24:04;5.83;;;5.23;;
5493;SDS011;2769;49.864;8.656;2023-02-17T09:26:32;7.10;;;5.47;;
5493;SDS011;2769;49.864;8.656;2023-02-17T09:29:01;6.00;;;5.30;;
5493;SDS011;2769;49.864;8.656;2023-02-17T09:31:31;6.67;;;5.67;;
5493;SDS011;2769;49.864;8.656;2023-02-17T09:34:01;6.17;;;5.30;;
5493;SDS011;2769;49.864;8.656;2023-02-17T09:36:31;12.30;;;5.80;;
5493;SDS011;2769;49.864;8.656;2023-02-17T09:39:00;6.33;;;5.70;;
5493;SDS011;2769;49.864;8.656;2023-02-17T09:41:35;6.67;;;6.00;;
5493;SDS011;2769;49.864;8.656;2023-02-17T09:44:05;7.60;;;5.90;;
5493;SDS011;2769;49.864;8.656;2023-02-17T09:46:38;7.03;;;6.13;;
5493;SDS011;2769;49.864;8.656;2023-02-17T09:49:25;7.63;;;6.20;;
5493;SDS011;2769;49.864;8.656;2023-02-17T09:51:59;10.60;;;5.67;;
5493;SDS011;2769;49.864;8.656;2023-02-17T09:54:30;10.73;;;6.33;;
5493;SDS011;2769;49.864;8.656;2023-02-17T09:57:01;7.33;;;6.47;;
5493;SDS011;2769;49.864;8.656;2023-02-17T09:59:31;7.60;;;5.90;;
5493;SDS011;2769;49.864;8.656;2023-02-17T10:02:05;7.17;;;6.43;;
5493;SDS011;2769;49.864;8.656;2023-02-17T10:04:34;8.07;;;6.27;;
5493;SDS011;2769;49.864;8.656;2023-02-17T10:07:08;11.70;;;6.93;;
5493;SDS011;2769;49.864;8.656;2023-02-17T10:09:41;11.20;;;6.20;;
5493;SDS011;2769;49.864;8.656;2023-02-17T10:12:15;8.40;;;6.03;;
5493;SDS011;2769;49.864;8.656;2023-02-17T10:14:45;7.87;;;6.07;;
5493;SDS011;2769;49.864;8.656;2023-02-17T10:17:19;6.10;;;5.50;;
5493;SDS011;2769;49.864;8.656;2023-02-17T10:19:51;10.50;;;5.90;;
5493;SDS011;2769;49.864;8.656;2023-02-17T10:22:22;7.20;;;5.60;;
5493;SDS011;2769;49.864;8.656;2023-02-17T10:24:51;11.83;;;6.00;;
5493;SDS011;2769;49.864;8.656;2023-02-17T10:27:23;8.40;;;5.77;;
5493;SDS011;2769;49.864;8.656;2023-02-17T10:30:01;5.50;;;5.00;;
5493;SDS011;2769;49.864;8.656;2023-02-17T10:32:37;8.70;;;5.63;;
5493;SDS011;2769;49.864;8.656;2023-02-17T10:35:12;6.13;;;5.20;;
5493;SDS011;2769;49.864;8.656;2023-02-17T10:37:45;5.43;;;4.80;;
5493;SDS011;2769;49.864;8.656;2023-02-17T10:40:19;6.50;;;5.90;;
5493;SDS011;2769;49.864;8.656;2023-02-17T10:42:48;6.63;;;5.30;;
5493;SDS011;2769;49.864;8.656;2023-02-17T10:45:20;7.03;;;5.40;;
5493;SDS011;2769;49.864;8.656;2023-02-17T10:47:53;8.07;;;5.80;;
5493;SDS011;2769;49.864;8.656;2023-02-17T10:50:24;6.23;;;5.30;;
5493;SDS011;2769;49.864;8.656;2023-02-17T10:52:54;6.27;;;5.50;;
5493;SDS011;2769;49.864;8.656;2023-02-17T10:55:24;5.33;;;4.83;;
5493;SDS011;2769;49.864;8.656;2023-02-17T10:57:59;7.40;;;5.20;;
5493;SDS011;2769;49.864;8.656;2023-02-17T11:00:31;5.90;;;5.30;;
5493;SDS011;2769;49.864;8.656;2023-02-17T11:02:59;6.37;;;5.33;;
5493;SDS011;2769;49.864;8.656;2023-02-17T11:05:28;5.70;;;4.90;;
5493;SDS011;2769;49.864;8.656;2023-02-17T11:07:59;5.43;;;5.03;;
5493;SDS011;2769;49.864;8.656;2023-02-17T11:10:30;7.60;;;5.10;;
5493;SDS011;2769;49.864;8.656;2023-02-17T11:12:59;5.60;;;4.43;;
5493;SDS011;2769;49.864;8.656;2023-02-17T11:15:29;6.13;;;5.20;;
5493;SDS011;2769;49.864;8.656;2023-02-17T11:18:07;4.97;;;4.50;;
5493;SDS011;2769;49.864;8.656;2023-02-17T11:20:37;4.97;;;4.43;;
5493;SDS011;2769;49.864;8.656;2023-02-17T11:23:15;5.10;;;4.60;;
5493;SDS011;2769;49.864;8.656;2023-02-17T11:25:55;4.30;;;4.00;;
5493;SDS011;2769;49.864;8.656;2023-02-17T11:28:25;4.03;;;3.70;;
5493;SDS011;2769;49.864;8.656;2023-02-17T11:30:54;6.53;;;4.10;;
5493;SDS011;2769;49.864;8.656;2023-02-17T11:33:27;4.20;;;3.90;;
5493;SDS011;2769;49.864;8.656;2023-02-17T11:35:57;3.17;;;2.97;;
5493;SDS011;2769;49.864;8.656;2023-02-17T11:38:28;4.20;;;3.80;;
5493;SDS011;2769;49.864;8.656;2023-02-17T11:41:00;3.60;;;3.30;;
5493;SDS011;2769;49.864;8.656;2023-02-17T11:43:30;4.20;;;3.90;;
5493;SDS011;2769;49.864;8.656;2023-02-17T11:46:10;4.10;;;3.80;;
5493;SDS011;2769;49.864;8.656;2023-02-17T11:48:48;4.13;;;3.80;;
5493;SDS011;2769;49.864;8.656;2023-02-17T11:51:24;4.13;;;3.80;;
5493;SDS011;2769;49.864;8.656;2023-02-17T11:54:02;4.57;;;4.17;;
5493;SDS011;2769;49.864;8.656;2023-02-17T11:56:32;5.53;;;3.60;;
5493;SDS011;2769;49.864;8.656;2023-02-17T11:59:09;3.90;;;3.60;;
5493;SDS011;2769;49.864;8.656;2023-02-17T12:01:53;3.90;;;3.60;;
5493;SDS011;2769;49.864;8.656;2023-02-17T12:04:28;4.40;;;4.00;;
5493;SDS011;2769;49.864;8.656;2023-02-17T12:07:02;4.40;;;3.83;;
5493;SDS011;2769;49.864;8.656;2023-02-17T12:09:42;4.30;;;3.90;;
5493;SDS011;2769;49.864;8.656;2023-02-17T12:12:16;6.87;;;4.50;;
5493;SDS011;2769;49.864;8.656;2023-02-17T12:14:57;6.30;;;5.17;;
5493;SDS011;2769;49.864;8.656;2023-02-17T12:17:34;5.23;;;4.70;;
5493;SDS011;2769;49.864;8.656;2023-02-17T12:20:07;6.70;;;5.20;;
5493;SDS011;2769;49.864;8.656;2023-02-17T12:23:00;6.23;;;5.10;;
5493;SDS011;2769;49.864;8.656;2023-02-17T12:25:37;5.00;;;3.90;;
5493;SDS011;2769;49.864;8.656;2023-02-17T12:28:30;4.50;;;4.10;;
5493;SDS011;2769;49.864;8.656;2023-02-17T12:31:04;3.60;;;3.30;;
5493;SDS011;2769;49.864;8.656;2023-02-17T12:33:42;4.13;;;3.83;;
5493;SDS011;2769;49.864;8.656;2023-02-17T12:36:15;3.20;;;3.00;;
5493;SDS011;2769;49.864;8.656;2023-02-17T12:38:45;3.83;;;3.53;;
5493;SDS011;2769;49.864;8.656;2023-02-17T12:41:17;3.20;;;2.93;;
5493;SDS011;2769;49.864;8.656;2023-02-17T12:43:48;2.80;;;2.60;;
5493;SDS011;2769;49.864;8.656;2023-02-17T12:46:19;2.90;;;2.70;;
5493;SDS011;2769;49.864;8.656;2023-02-17T12:48:50;2.70;;;2.60;;
5493;SDS011;2769;49.864;8.656;2023-02-17T12:51:21;2.53;;;2.43;;
5493;SDS011;2769;49.864;8.656;2023-02-17T12:53:51;2.50;;;2.40;;
5493;SDS011;2769;49.864;8.656;2023-02-17T12:59:14;2.50;;;2.40;;
5493;SDS011;2769;49.864;8.656;2023-02-17T13:01:46;2.33;;;2.23;;
5493;SDS011;2769;49.864;8.656;2023-02-17T13:04:16;2.40;;;2.30;;
5493;SDS011;2769;49.864;8.656;2023-02-17T13:06:47;2.30;;;2.20;;
5493;SDS011;2769;49.864;8.656;2023-02-17T13:09:22;2.80;;;2.60;;
5493;SDS011;2769;49.864;8.656;2023-02-17T13:11:54;2.17;;;2.00;;
5493;SDS011;2769;49.864;8.656;2023-02-17T13:14:37;2.20;;;2.10;;
5493;SDS011;2769;49.864;8.656;2023-02-17T13:17:19;2.10;;;2.00;;
5493;SDS011;2769;49.864;8.656;2023-02-17T13:19:59;2.10;;;2.00;;
5493;SDS011;2769;49.864;8.656;2023-02-17T13:22:30;2.43;;;2.30;;
5493;SDS011;2769;49.864;8.656;2023-02-17T13:24:58;2.20;;;2.00;;
5493;SDS011;2769;49.864;8.656;2023-02-17T13:27:31;2.53;;;2.43;;
5493;SDS011;2769;49.864;8.656;2023-02-17T13:30:01;2.50;;;2.40;;
5493;SDS011;2769;49.864;8.656;2023-02-17T13:32:31;2.73;;;2.60;;
5493;SDS011;2769;49.864;8.656;2023-02-17T13:35:02;3.07;;;2.90;;
5493;SDS011;2769;49.864;8.656;2023-02-17T13:37:37;2.87;;;2.67;;
5493;SDS011;2769;49.864;8.656;2023-02-17T13:43:09;3.10;;;2.80;;
5493;SDS011;2769;49.864;8.656;2023-02-17T13:45:42;2.93;;;2.73;;
5493;SDS011;2769;49.864;8.656;2023-02-17T13:48:13;3.33;;;3.03;;
5493;SDS011;2769;49.864;8.656;2023-02-17T13:50:49;3.40;;;3.20;;
5493;SDS011;2769;49.864;8.656;2023-02-17T13:53:20;2.80;;;2.60;;
5493;SDS011;2769;49.864;8.656;2023-02-17T13:55:50;3.10;;;2.90;;
5493;SDS011;2769;49.864;8.656;2023-02-17T13:58:23;3.30;;;3.00;;
5493;SDS011;2769;49.864;8.656;2023-02-17T14:00:54;3.43;;;3.13;;
5493;SDS011;2769;49.864;8.656;2023-02-17T14:03:22;5.00;;;3.50;;
5493;SDS011;2769;49.864;8.656;2023-02-17T14:05:52;3.37;;;3.07;;
5493;SDS011;2769;49.864;8.656;2023-02-17T14:08:24;2.70;;;2.50;;
5493;SDS011;2769;49.864;8.656;2023-02-17T14:10:55;5.67;;;2.87;;
5493;SDS011;2769;49.864;8.656;2023-02-17T14:13:25;2.97;;;2.77;;
5493;SDS011;2769;49.864;8.656;2023-02-17T14:15:54;3.23;;;3.10;;
5493;SDS011;2769;49.864;8.656;2023-02-17T14:18:26;4.50;;;3.10;;
5493;SDS011;2769;49.864;8.656;2023-02-17T14:20:59;5.97;;;3.73;;
5493;SDS011;2769;49.864;8.656;2023-02-17T14:23:45;3.70;;;3.40;;
5493;SDS011;2769;49.864;8.656;2023-02-17T14:26:18;3.20;;;3.00;;
5493;SDS011;2769;49.864;8.656;2023-02-17T14:28:55;3.70;;;3.13;;
5493;SDS011;2769;49.864;8.656;2023-02-17T14:31:25;4.00;;;3.23;;
5493;SDS011;2769;49.864;8.656;2023-02-17T14:33:58;3.70;;;3.40;;
5493;SDS011;2769;49.864;8.656;2023-02-17T14:36:28;3.77;;;2.47;;
5493;SDS011;2769;49.864;8.656;2023-02-17T14:38:58;3.40;;;3.20;;
5493;SDS011;2769;49.864;8.656;2023-02-17T14:41:26;4.93;;;3.60;;
5493;SDS011;2769;49.864;8.656;2023-02-17T14:43:55;3.70;;;3.50;;
5493;SDS011;2769;49.864;8.656;2023-02-17T14:46:23;4.70;;;4.10;;
5493;SDS011;2769;49.864;8.656;2023-02-17T14:48:51;4.60;;;3.50;;
5493;SDS011;2769;49.864;8.656;2023-02-17T14:51:21;3.90;;;3.60;;
5493;SDS011;2769;49.864;8.656;2023-02-17T14:53:50;4.30;;;3.90;;
5493;SDS011;2769;49.864;8.656;2023-02-17T14:56:20;4.40;;;4.00;;
5493;SDS011;2769;49.864;8.656;2023-02-17T14:58:49;5.17;;;4.67;;
5493;SDS011;2769;49.864;8.656;2023-02-17T15:01:20;4.23;;;3.83;;
5493;SDS011;2769;49.864;8.656;2023-02-17T15:03:49;5.53;;;4.53;;
5493;SDS011;2769;49.864;8.656;2023-02-17T15:06:19;4.13;;;3.83;;
5493;SDS011;2769;49.864;8.656;2023-02-17T15:08:48;6.47;;;4.80;;
5493;SDS011;2769;49.864;8.656;2023-02-17T15:11:17;5.63;;;4.27;;
5493;SDS011;2769;49.864;8.656;2023-02-17T15:13:46;4.50;;;3.97;;
5493;SDS011;2769;49.864;8.656;2023-02-17T15:16:14;6.23;;;4.80;;
5493;SDS011;2769;49.864;8.656;2023-02-17T15:18:43;7.23;;;4.53;;
5493;SDS011;2769;49.864;8.656;2023-02-17T15:21:15;4.60;;;4.20;;
5493;SDS011;2769;49.864;8.656;2023-02-17T15:23:48;5.17;;;4.23;;
5493;SDS011;2769;49.864;8.656;2023-02-17T15:26:15;5.70;;;4.53;;
5493;SDS011;2769;49.864;8.656;2023-02-17T15:28:43;4.57;;;4.27;;
5493;SDS011;2769;49.864;8.656;2023-02-17T15:31:12;5.37;;;4.87;;
5493;SDS011;2769;49.864;8.656;2023-02-17T15:33:43;4.40;;;4.00;;
5493;SDS011;2769;49.864;8.656;2023-02-17T15:36:12;5.10;;;3.87;;
5493;SDS011;2769;49.864;8.656;2023-02-17T15:38:41;4.30;;;4.00;;
5493;SDS011;2769;49.864;8.656;2023-02-17T15:41:12;6.33;;;4.23;;
5493;SDS011;2769;49.864;8.656;2023-02-17T15:43:41;4.57;;;4.10;;
5493;SDS011;2769;49.864;8.656;2023-02-17T15:46:11;4.80;;;4.40;;